Auburn, Massachusetts
Current Conditions -  °F | °C
As of 11:54 AM on Friday 31 Oct 2014 (Local Time) from KORH Reporting Station
Overcast Overcast  
Wind Chill: 42°   Ceiling: 4800
Heat Index: 46°   Visibility: 10mi
Dew Point: 35°   Wind: 7mph
Humidity: 66%   Direction: 80°E
Pressure: 30"   Gusts: NA
Location:  42.18°N, 71.85°W
Report Text: KORH 311554Z 08006KT 10SM OVC048 08/02 A3000 RMK AO2 SLP167 T00780017
Loading
Personal Weather Stations






























Interactive Weather Map
Tropical Storm Tracking
New forecast layout! Learn more

10-Day Weather Forecast

Advertisements
Track Severe Weather on mobile